sensor_id;sensor_type;location;lat;lon;timestamp;pressure;altitude;pressure_sealevel;temperature;humidity
68230;BME280;55048;52.220;5.160;2023-08-07T00:01:42;101217.63;;;14.87;100.00
68230;BME280;55048;52.220;5.160;2023-08-07T00:04:08;101173.38;;;14.74;100.00
68230;BME280;55048;52.220;5.160;2023-08-07T00:06:33;101199.44;;;14.89;100.00
68230;BME280;55048;52.220;5.160;2023-08-07T00:08:58;101201.88;;;14.96;100.00
68230;BME280;55048;52.220;5.160;2023-08-07T00:11:24;101205.13;;;14.98;100.00
68230;BME280;55048;52.220;5.160;2023-08-07T00:13:49;101201.38;;;14.99;100.00
68230;BME280;55048;52.220;5.160;2023-08-07T00:16:15;101214.28;;;15.02;100.00
68230;BME280;55048;52.220;5.160;2023-08-07T00:18:40;101211.50;;;14.92;100.00
68230;BME280;55048;52.220;5.160;2023-08-07T00:21:05;101223.66;;;15.04;100.00
68230;BME280;55048;52.220;5.160;2023-08-07T00:23:31;101199.59;;;14.77;100.00
68230;BME280;55048;52.220;5.160;2023-08-07T00:25:56;101201.66;;;14.65;100.00
68230;BME280;55048;52.220;5.160;2023-08-07T00:28:22;101218.66;;;14.81;100.00
68230;BME280;55048;52.220;5.160;2023-08-07T00:30:47;101203.03;;;14.73;100.00
68230;BME280;55048;52.220;5.160;2023-08-07T00:33:12;101199.94;;;14.54;100.00
68230;BME280;55048;52.220;5.160;2023-08-07T00:35:38;101212.88;;;14.62;100.00
68230;BME280;55048;52.220;5.160;2023-08-07T00:38:03;101212.41;;;14.70;100.00
68230;BME280;55048;52.220;5.160;2023-08-07T00:40:36;101186.84;;;14.58;100.00
68230;BME280;55048;52.220;5.160;2023-08-07T00:43:01;101195.50;;;14.65;100.00
68230;BME280;55048;52.220;5.160;2023-08-07T00:45:27;101211.38;;;14.76;100.00
68230;BME280;55048;52.220;5.160;2023-08-07T00:47:52;101193.38;;;14.67;100.00
68230;BME280;55048;52.220;5.160;2023-08-07T00:50:18;101214.63;;;14.78;100.00
68230;BME280;55048;52.220;5.160;2023-08-07T00:52:44;101183.41;;;14.62;100.00
68230;BME280;55048;52.220;5.160;2023-08-07T00:55:09;101192.69;;;14.82;100.00
68230;BME280;55048;52.220;5.160;2023-08-07T00:57:36;101196.09;;;14.72;100.00
68230;BME280;55048;52.220;5.160;2023-08-07T01:00:02;101186.41;;;14.66;100.00
68230;BME280;55048;52.220;5.160;2023-08-07T01:02:28;101203.38;;;14.82;100.00
68230;BME280;55048;52.220;5.160;2023-08-07T01:04:54;101188.06;;;14.72;100.00
68230;BME280;55048;52.220;5.160;2023-08-07T01:07:20;101180.75;;;14.62;100.00
68230;BME280;55048;52.220;5.160;2023-08-07T01:09:46;101188.06;;;14.72;100.00
68230;BME280;55048;52.220;5.160;2023-08-07T01:12:18;101198.75;;;14.72;100.00
68230;BME280;55048;52.220;5.160;2023-08-07T01:15:12;101185.06;;;14.68;100.00
68230;BME280;55048;52.220;5.160;2023-08-07T01:17:39;101214.63;;;14.78;100.00
68230;BME280;55048;52.220;5.160;2023-08-07T01:20:06;101189.97;;;14.76;100.00
68230;BME280;55048;52.220;5.160;2023-08-07T01:22:32;101206.84;;;14.77;100.00
68230;BME280;55048;52.220;5.160;2023-08-07T01:24:57;101199.41;;;14.84;100.00
68230;BME280;55048;52.220;5.160;2023-08-07T01:33:15;101220.38;;;14.92;100.00
68230;BME280;55048;52.220;5.160;2023-08-07T01:35:44;101223.53;;;14.89;100.00
68230;BME280;55048;52.220;5.160;2023-08-07T01:38:12;101194.97;;;14.68;100.00
68230;BME280;55048;52.220;5.160;2023-08-07T01:40:40;101200.97;;;14.80;99.59
68230;BME280;55048;52.220;5.160;2023-08-07T01:43:07;101220.31;;;14.87;99.79
68230;BME280;55048;52.220;5.160;2023-08-07T01:45:34;101228.41;;;14.92;100.00
68230;BME280;55048;52.220;5.160;2023-08-07T01:47:59;101211.19;;;14.83;100.00
68230;BME280;55048;52.220;5.160;2023-08-07T01:50:25;101214.72;;;14.89;100.00
68230;BME280;55048;52.220;5.160;2023-08-07T01:52:51;101209.34;;;14.89;99.75
68230;BME280;55048;52.220;5.160;2023-08-07T01:55:18;101229.53;;;15.01;99.72
68230;BME280;55048;52.220;5.160;2023-08-07T01:57:50;101224.97;;;14.97;100.00
68230;BME280;55048;52.220;5.160;2023-08-07T02:00:16;101222.00;;;14.98;100.00
68230;BME280;55048;52.220;5.160;2023-08-07T02:02:41;101221.78;;;15.05;99.82
68230;BME280;55048;52.220;5.160;2023-08-07T02:05:07;101219.34;;;14.98;99.78
68230;BME280;55048;52.220;5.160;2023-08-07T02:07:32;101221.97;;;14.93;100.00
68230;BME280;55048;52.220;5.160;2023-08-07T02:10:02;101228.19;;;14.99;100.00
68230;BME280;55048;52.220;5.160;2023-08-07T02:12:27;101209.13;;;14.95;100.00
68230;BME280;55048;52.220;5.160;2023-08-07T02:14:55;101240.19;;;14.96;100.00
68230;BME280;55048;52.220;5.160;2023-08-07T02:17:21;101231.16;;;15.02;99.88
68230;BME280;55048;52.220;5.160;2023-08-07T02:19:47;101231.44;;;15.06;99.91
68230;BME280;55048;52.220;5.160;2023-08-07T02:22:13;101216.09;;;14.96;100.00
68230;BME280;55048;52.220;5.160;2023-08-07T02:24:38;101221.00;;;15.10;99.67
68230;BME280;55048;52.220;5.160;2023-08-07T02:27:05;101236.66;;;15.23;99.45
68230;BME280;55048;52.220;5.160;2023-08-07T02:29:31;101223.66;;;15.04;100.00
68230;BME280;55048;52.220;5.160;2023-08-07T02:32:00;101227.09;;;15.00;100.00
68230;BME280;55048;52.220;5.160;2023-08-07T02:34:25;101221.22;;;14.98;100.00
68230;BME280;55048;52.220;5.160;2023-08-07T02:36:51;101249.69;;;15.09;100.00
68230;BME280;55048;52.220;5.160;2023-08-07T02:39:16;101224.50;;;14.78;100.00
68230;BME280;55048;52.220;5.160;2023-08-07T02:41:42;101244.41;;;14.87;100.00
68230;BME280;55048;52.220;5.160;2023-08-07T02:44:07;101230.38;;;14.75;100.00
68230;BME280;55048;52.220;5.160;2023-08-07T02:46:32;101242.22;;;14.79;100.00
68230;BME280;55048;52.220;5.160;2023-08-07T02:49:01;101204.28;;;14.60;100.00
68230;BME280;55048;52.220;5.160;2023-08-07T02:51:26;101253.00;;;14.62;100.00
68230;BME280;55048;52.220;5.160;2023-08-07T02:53:52;101256.53;;;14.68;100.00
68230;BME280;55048;52.220;5.160;2023-08-07T02:56:17;101252.56;;;14.70;100.00
68230;BME280;55048;52.220;5.160;2023-08-07T02:58:43;101226.41;;;14.50;100.00
68230;BME280;55048;52.220;5.160;2023-08-07T03:01:08;101238.34;;;14.43;100.00
68230;BME280;55048;52.220;5.160;2023-08-07T03:03:34;101234.72;;;14.54;100.00
68230;BME280;55048;52.220;5.160;2023-08-07T03:06:00;101229.56;;;14.47;100.00
68230;BME280;55048;52.220;5.160;2023-08-07T03:08:26;101224.03;;;14.54;100.00
68230;BME280;55048;52.220;5.160;2023-08-07T03:10:57;101255.38;;;14.59;100.00
68230;BME280;55048;52.220;5.160;2023-08-07T03:13:24;101228.84;;;14.52;100.00
68230;BME280;55048;52.220;5.160;2023-08-07T03:15:50;101218.13;;;14.52;100.00
68230;BME280;55048;52.220;5.160;2023-08-07T03:18:16;101230.78;;;14.62;100.00
68230;BME280;55048;52.220;5.160;2023-08-07T03:20:43;101213.28;;;14.49;100.00
68230;BME280;55048;52.220;5.160;2023-08-07T03:23:09;101214.38;;;14.53;100.00
68230;BME280;55048;52.220;5.160;2023-08-07T03:25:35;101234.84;;;14.64;100.00
68230;BME280;55048;52.220;5.160;2023-08-07T03:28:01;101236.69;;;14.64;100.00
68230;BME280;55048;52.220;5.160;2023-08-07T03:30:27;101230.25;;;14.60;100.00
68230;BME280;55048;52.220;5.160;2023-08-07T03:32:52;101204.91;;;14.45;100.00
68230;BME280;55048;52.220;5.160;2023-08-07T03:35:19;101221.38;;;14.59;100.00
68230;BME280;55048;52.220;5.160;2023-08-07T03:37:44;101229.22;;;14.66;100.00
68230;BME280;55048;52.220;5.160;2023-08-07T03:40:10;101246.94;;;14.72;100.00
68230;BME280;55048;52.220;5.160;2023-08-07T03:42:36;101226.50;;;14.61;100.00
68230;BME280;55048;52.220;5.160;2023-08-07T03:45:02;101251.81;;;14.75;100.00
68230;BME280;55048;52.220;5.160;2023-08-07T03:47:29;101223.88;;;14.66;100.00
68230;BME280;55048;52.220;5.160;2023-08-07T03:49:55;101226.06;;;14.69;100.00
68230;BME280;55048;52.220;5.160;2023-08-07T03:52:21;101222.31;;;14.70;100.00
68230;BME280;55048;52.220;5.160;2023-08-07T03:54:46;101213.47;;;14.69;100.00
68230;BME280;55048;52.220;5.160;2023-08-07T03:57:12;101216.88;;;14.60;100.00
68230;BME280;55048;52.220;5.160;2023-08-07T03:59:37;101239.09;;;14.60;100.00
68230;BME280;55048;52.220;5.160;2023-08-07T04:02:03;101222.81;;;14.67;100.00
68230;BME280;55048;52.220;5.160;2023-08-07T04:04:29;101241.91;;;14.75;100.00
68230;BME280;55048;52.220;5.160;2023-08-07T04:06:54;101227.13;;;14.73;100.00
68230;BME280;55048;52.220;5.160;2023-08-07T04:09:20;101220.94;;;14.67;100.00
68230;BME280;55048;52.220;5.160;2023-08-07T04:11:45;101220.75;;;14.74;100.00
68230;BME280;55048;52.220;5.160;2023-08-07T04:14:11;101238.47;;;14.80;100.00
68230;BME280;55048;52.220;5.160;2023-08-07T04:16:37;101237.97;;;14.83;100.00
68230;BME280;55048;52.220;5.160;2023-08-07T04:19:03;101243.59;;;14.87;100.00
68230;BME280;55048;52.220;5.160;2023-08-07T04:21:30;101246.88;;;14.94;100.00
68230;BME280;55048;52.220;5.160;2023-08-07T04:23:55;101256.97;;;14.87;100.00
68230;BME280;55048;52.220;5.160;2023-08-07T04:26:21;101258.13;;;14.96;100.00
68230;BME280;55048;52.220;5.160;2023-08-07T04:28:46;101250.09;;;14.96;100.00
68230;BME280;55048;52.220;5.160;2023-08-07T04:31:13;101249.09;;;15.02;100.00
68230;BME280;55048;52.220;5.160;2023-08-07T04:33:39;101242.88;;;14.96;100.00
68230;BME280;55048;52.220;5.160;2023-08-07T04:36:04;101244.53;;;15.02;100.00
68230;BME280;55048;52.220;5.160;2023-08-07T04:38:30;101243.97;;;15.00;100.00
68230;BME280;55048;52.220;5.160;2023-08-07T04:40:56;101247.72;;;14.99;100.00
68230;BME280;55048;52.220;5.160;2023-08-07T04:43:21;101243.72;;;14.97;100.00
68230;BME280;55048;52.220;5.160;2023-08-07T04:45:47;101251.50;;;15.03;100.00
68230;BME280;55048;52.220;5.160;2023-08-07T04:48:13;101269.84;;;15.17;100.00
68230;BME280;55048;52.220;5.160;2023-08-07T04:50:38;101268.16;;;15.11;100.00
68230;BME280;55048;52.220;5.160;2023-08-07T04:53:04;101271.94;;;15.15;100.00
68230;BME280;55048;52.220;5.160;2023-08-07T04:55:31;101249.91;;;15.02;100.00
68230;BME280;55048;52.220;5.160;2023-08-07T04:57:57;101247.94;;;14.93;100.00
68230;BME280;55048;52.220;5.160;2023-08-07T05:00:23;101265.78;;;15.14;100.00
68230;BME280;55048;52.220;5.160;2023-08-07T05:02:48;101252.91;;;15.11;100.00
68230;BME280;55048;52.220;5.160;2023-08-07T05:05:14;101271.16;;;15.14;100.00
68230;BME280;55048;52.220;5.160;2023-08-07T05:07:41;101283.28;;;15.22;100.00
68230;BME280;55048;52.220;5.160;2023-08-07T05:10:08;101298.31;;;15.28;100.00
68230;BME280;55048;52.220;5.160;2023-08-07T05:12:34;101257.63;;;14.99;100.00
68230;BME280;55048;52.220;5.160;2023-08-07T05:14:59;101303.53;;;15.08;100.00
68230;BME280;55048;52.220;5.160;2023-08-07T05:17:25;101286.97;;;14.84;100.00
68230;BME280;55048;52.220;5.160;2023-08-07T05:19:50;101272.78;;;14.83;100.00
68230;BME280;55048;52.220;5.160;2023-08-07T05:22:16;101309.81;;;14.96;100.00
68230;BME280;55048;52.220;5.160;2023-08-07T05:24:41;101304.38;;;14.86;100.00
68230;BME280;55048;52.220;5.160;2023-08-07T05:27:09;101316.16;;;14.85;100.00
68230;BME280;55048;52.220;5.160;2023-08-07T05:29:35;101294.81;;;14.68;100.00
68230;BME280;55048;52.220;5.160;2023-08-07T05:32:08;101314.13;;;14.70;100.00
68230;BME280;55048;52.220;5.160;2023-08-07T05:34:34;101311.72;;;14.69;100.00
68230;BME280;55048;52.220;5.160;2023-08-07T05:36:59;101325.16;;;14.74;100.00
68230;BME280;55048;52.220;5.160;2023-08-07T05:39:24;101315.16;;;14.64;100.00
68230;BME280;55048;52.220;5.160;2023-08-07T05:41:50;101308.56;;;14.50;100.00
68230;BME280;55048;52.220;5.160;2023-08-07T05:44:16;101300.94;;;14.64;100.00
68230;BME280;55048;52.220;5.160;2023-08-07T05:46:41;101319.09;;;14.84;100.00
68230;BME280;55048;52.220;5.160;2023-08-07T05:49:07;101313.22;;;14.87;100.00
68230;BME280;55048;52.220;5.160;2023-08-07T05:51:32;101311.47;;;14.97;100.00
68230;BME280;55048;52.220;5.160;2023-08-07T05:53:57;101307.91;;;14.92;100.00
68230;BME280;55048;52.220;5.160;2023-08-07T05:56:23;101327.41;;;15.14;100.00
68230;BME280;55048;52.220;5.160;2023-08-07T05:58:48;101342.75;;;15.24;100.00
68230;BME280;55048;52.220;5.160;2023-08-07T06:01:14;101300.84;;;15.08;100.00
68230;BME280;55048;52.220;5.160;2023-08-07T06:03:41;101328.34;;;15.30;100.00
68230;BME280;55048;52.220;5.160;2023-08-07T06:06:07;101329.00;;;15.47;100.00
68230;BME280;55048;52.220;5.160;2023-08-07T06:08:32;101328.03;;;15.59;100.00
68230;BME280;55048;52.220;5.160;2023-08-07T06:10:58;101309.22;;;15.48;100.00
68230;BME280;55048;52.220;5.160;2023-08-07T06:13:23;101342.63;;;15.73;100.00
68230;BME280;55048;52.220;5.160;2023-08-07T06:15:48;101341.38;;;15.86;100.00
68230;BME280;55048;52.220;5.160;2023-08-07T06:18:14;101331.47;;;15.86;99.92
68230;BME280;55048;52.220;5.160;2023-08-07T06:20:39;101341.66;;;15.89;99.59
68230;BME280;55048;52.220;5.160;2023-08-07T06:23:05;101337.38;;;15.88;99.47
68230;BME280;55048;52.220;5.160;2023-08-07T06:25:31;101341.94;;;15.88;98.81
68230;BME280;55048;52.220;5.160;2023-08-07T06:27:56;101347.72;;;15.69;99.23
68230;BME280;55048;52.220;5.160;2023-08-07T06:30:21;101347.75;;;15.74;98.35
68230;BME280;55048;52.220;5.160;2023-08-07T06:32:47;101354.53;;;15.87;98.06
68230;BME280;55048;52.220;5.160;2023-08-07T06:35:12;101368.47;;;15.89;97.11
68230;BME280;55048;52.220;5.160;2023-08-07T06:37:38;101384.88;;;15.61;97.11
68230;BME280;55048;52.220;5.160;2023-08-07T06:40:03;101377.50;;;15.73;96.87
68230;BME280;55048;52.220;5.160;2023-08-07T06:42:30;101381.53;;;15.75;97.17
68230;BME280;55048;52.220;5.160;2023-08-07T06:44:56;101363.19;;;15.62;96.65
68230;BME280;55048;52.220;5.160;2023-08-07T06:47:21;101367.47;;;15.63;96.94
68230;BME280;55048;52.220;5.160;2023-08-07T06:49:47;101375.19;;;15.54;97.30
68230;BME280;55048;52.220;5.160;2023-08-07T06:52:12;101364.88;;;15.41;97.28
68230;BME280;55048;52.220;5.160;2023-08-07T06:54:37;101397.31;;;15.40;98.75
68230;BME280;55048;52.220;5.160;2023-08-07T06:57:03;101363.44;;;15.28;98.54
68230;BME280;55048;52.220;5.160;2023-08-07T06:59:29;101375.53;;;15.31;98.74
68230;BME280;55048;52.220;5.160;2023-08-07T07:01:54;101387.94;;;15.69;99.02
68230;BME280;55048;52.220;5.160;2023-08-07T07:09:52;101391.59;;;16.43;96.83
68230;BME280;55048;52.220;5.160;2023-08-07T07:12:17;101406.44;;;16.55;96.40
68230;BME280;55048;52.220;5.160;2023-08-07T07:14:42;101410.91;;;16.45;96.44
68230;BME280;55048;52.220;5.160;2023-08-07T07:17:08;101371.34;;;16.20;96.15
68230;BME280;55048;52.220;5.160;2023-08-07T07:19:33;101404.09;;;16.22;97.02
68230;BME280;55048;52.220;5.160;2023-08-07T07:21:59;101382.47;;;15.91;96.81
68230;BME280;55048;52.220;5.160;2023-08-07T07:24:24;101429.28;;;16.16;96.16
68230;BME280;55048;52.220;5.160;2023-08-07T07:26:49;101299.69;;;15.30;96.13
68230;BME280;55048;52.220;5.160;2023-08-07T07:29:17;101381.75;;;15.69;96.56
68230;BME280;55048;52.220;5.160;2023-08-07T07:31:43;101425.88;;;15.88;96.22
68230;BME280;55048;52.220;5.160;2023-08-07T07:34:08;101258.50;;;14.77;96.15
68230;BME280;55048;52.220;5.160;2023-08-07T07:36:34;101401.38;;;15.74;96.02
68230;BME280;55048;52.220;5.160;2023-08-07T07:38:59;101422.69;;;15.91;95.62
68230;BME280;55048;52.220;5.160;2023-08-07T07:41:25;101331.66;;;15.42;95.44
68230;BME280;55048;52.220;5.160;2023-08-07T07:43:50;101396.41;;;15.93;95.11
68230;BME280;55048;52.220;5.160;2023-08-07T07:46:16;101413.78;;;16.23;94.46
68230;BME280;55048;52.220;5.160;2023-08-07T07:48:41;101362.91;;;15.96;94.02
68230;BME280;55048;52.220;5.160;2023-08-07T07:51:07;101388.78;;;16.22;93.30
68230;BME280;55048;52.220;5.160;2023-08-07T07:53:33;101444.00;;;16.55;92.39
68230;BME280;55048;52.220;5.160;2023-08-07T07:55:59;101448.22;;;16.41;92.02
68230;BME280;55048;52.220;5.160;2023-08-07T07:58:24;101416.22;;;15.87;92.10
68230;BME280;55048;52.220;5.160;2023-08-07T08:00:50;101411.63;;;15.82;92.22
68230;BME280;55048;52.220;5.160;2023-08-07T08:03:19;101244.69;;;14.59;91.10
68230;BME280;55048;52.220;5.160;2023-08-07T08:05:48;101462.94;;;15.91;91.38
68230;BME280;55048;52.220;5.160;2023-08-07T08:08:14;101472.38;;;16.41;91.02
68230;BME280;55048;52.220;5.160;2023-08-07T08:10:39;101439.13;;;16.42;89.34
68230;BME280;55048;52.220;5.160;2023-08-07T08:13:05;101365.66;;;16.11;89.06
68230;BME280;55048;52.220;5.160;2023-08-07T08:15:30;101442.06;;;16.93;86.81
68230;BME280;55048;52.220;5.160;2023-08-07T08:17:55;101332.16;;;16.14;84.69
68230;BME280;55048;52.220;5.160;2023-08-07T08:20:21;101480.34;;;17.46;85.03
68230;BME280;55048;52.220;5.160;2023-08-07T08:22:47;101469.28;;;17.43;83.49
68230;BME280;55048;52.220;5.160;2023-08-07T08:25:13;101423.59;;;17.38;83.72
68230;BME280;55048;52.220;5.160;2023-08-07T08:27:39;101452.13;;;17.49;83.50
68230;BME280;55048;52.220;5.160;2023-08-07T08:30:05;101487.03;;;17.39;84.30
68230;BME280;55048;52.220;5.160;2023-08-07T08:32:30;101438.41;;;16.67;85.04
68230;BME280;55048;52.220;5.160;2023-08-07T08:34:56;101478.00;;;16.82;86.30
68230;BME280;55048;52.220;5.160;2023-08-07T08:37:21;101463.97;;;16.70;86.63
68230;BME280;55048;52.220;5.160;2023-08-07T08:39:47;101481.34;;;16.57;87.05
68230;BME280;55048;52.220;5.160;2023-08-07T08:42:12;101499.78;;;16.43;87.48
68230;BME280;55048;52.220;5.160;2023-08-07T08:44:48;101503.56;;;16.47;90.45
68230;BME280;55048;52.220;5.160;2023-08-07T08:47:16;101283.72;;;15.14;88.82
68230;BME280;55048;52.220;5.160;2023-08-07T08:50:01;101447.03;;;16.22;87.90
68230;BME280;55048;52.220;5.160;2023-08-07T08:52:31;101504.16;;;16.59;88.10
68230;BME280;55048;52.220;5.160;2023-08-07T08:54:58;101512.13;;;16.87;87.97
68230;BME280;55048;52.220;5.160;2023-08-07T08:57:27;101517.84;;;17.05;87.41
68230;BME280;55048;52.220;5.160;2023-08-07T08:59:53;101481.03;;;17.11;86.50
68230;BME280;55048;52.220;5.160;2023-08-07T09:02:18;101489.97;;;17.27;85.11
68230;BME280;55048;52.220;5.160;2023-08-07T09:04:44;101436.50;;;17.25;84.25
68230;BME280;55048;52.220;5.160;2023-08-07T09:07:11;101484.91;;;17.66;84.12
68230;BME280;55048;52.220;5.160;2023-08-07T09:09:39;101510.00;;;17.82;82.44
68230;BME280;55048;52.220;5.160;2023-08-07T09:12:08;101487.38;;;17.73;81.28
68230;BME280;55048;52.220;5.160;2023-08-07T09:14:39;101520.50;;;17.99;81.66
68230;BME280;55048;52.220;5.160;2023-08-07T09:17:07;101507.53;;;17.70;81.12
68230;BME280;55048;52.220;5.160;2023-08-07T09:19:33;101490.56;;;17.54;80.58
68230;BME280;55048;52.220;5.160;2023-08-07T09:21:58;101516.38;;;17.40;81.63
68230;BME280;55048;52.220;5.160;2023-08-07T09:24:24;101501.81;;;17.26;82.05
68230;BME280;55048;52.220;5.160;2023-08-07T09:26:51;101432.72;;;16.53;81.83
68230;BME280;55048;52.220;5.160;2023-08-07T09:29:17;101511.97;;;17.14;82.48
68230;BME280;55048;52.220;5.160;2023-08-07T09:31:45;101541.84;;;17.27;81.46
68230;BME280;55048;52.220;5.160;2023-08-07T09:34:11;101536.19;;;17.19;80.76
68230;BME280;55048;52.220;5.160;2023-08-07T09:36:39;101544.84;;;17.31;80.52
68230;BME280;55048;52.220;5.160;2023-08-07T09:39:06;101553.19;;;17.40;79.73
68230;BME280;55048;52.220;5.160;2023-08-07T09:41:31;101502.00;;;17.04;79.56
68230;BME280;55048;52.220;5.160;2023-08-07T09:43:57;101542.47;;;16.87;81.13
68230;BME280;55048;52.220;5.160;2023-08-07T09:46:25;101557.59;;;16.93;81.27
68230;BME280;55048;52.220;5.160;2023-08-07T09:48:50;101534.38;;;16.77;82.18
68230;BME280;55048;52.220;5.160;2023-08-07T09:51:16;101541.38;;;16.83;83.05
68230;BME280;55048;52.220;5.160;2023-08-07T09:53:41;101538.00;;;16.55;85.39
68230;BME280;55048;52.220;5.160;2023-08-07T09:56:07;101459.22;;;16.40;84.73
68230;BME280;55048;52.220;5.160;2023-08-07T09:58:32;101584.88;;;17.32;84.61
68230;BME280;55048;52.220;5.160;2023-08-07T10:01:00;101459.88;;;16.62;83.54
68230;BME280;55048;52.220;5.160;2023-08-07T10:03:26;101559.09;;;17.42;83.51
68230;BME280;55048;52.220;5.160;2023-08-07T10:05:51;101574.81;;;17.80;82.71
68230;BME280;55048;52.220;5.160;2023-08-07T10:08:17;101568.94;;;17.89;82.21
68230;BME280;55048;52.220;5.160;2023-08-07T10:10:44;101524.47;;;17.66;80.94
68230;BME280;55048;52.220;5.160;2023-08-07T10:13:12;101493.00;;;17.61;80.17
68230;BME280;55048;52.220;5.160;2023-08-07T10:15:38;101372.16;;;16.83;79.47
68230;BME280;55048;52.220;5.160;2023-08-07T10:18:05;101529.38;;;17.94;79.20
68230;BME280;55048;52.220;5.160;2023-08-07T10:20:31;101536.38;;;18.00;79.31
68230;BME280;55048;52.220;5.160;2023-08-07T10:23:00;101570.81;;;18.14;78.30
68230;BME280;55048;52.220;5.160;2023-08-07T10:25:28;101525.75;;;17.38;76.51
68230;BME280;55048;52.220;5.160;2023-08-07T10:27:55;101576.47;;;17.92;77.25
68230;BME280;55048;52.220;5.160;2023-08-07T10:30:24;101525.88;;;17.73;77.30
68230;BME280;55048;52.220;5.160;2023-08-07T10:32:51;101500.56;;;17.79;76.12
68230;BME280;55048;52.220;5.160;2023-08-07T10:35:24;101537.69;;;18.18;75.84
68230;BME280;55048;52.220;5.160;2023-08-07T10:37:51;101501.66;;;17.99;74.03
68230;BME280;55048;52.220;5.160;2023-08-07T10:40:16;101532.06;;;17.99;73.31
68230;BME280;55048;52.220;5.160;2023-08-07T10:42:58;101546.59;;;17.83;73.36
68230;BME280;55048;52.220;5.160;2023-08-07T10:45:25;101467.38;;;17.23;74.22
68230;BME280;55048;52.220;5.160;2023-08-07T10:48:07;101594.22;;;17.98;74.25
68230;BME280;55048;52.220;5.160;2023-08-07T10:50:36;101593.72;;;18.01;73.80
68230;BME280;55048;52.220;5.160;2023-08-07T10:53:21;101568.91;;;17.73;74.67
68230;BME280;55048;52.220;5.160;2023-08-07T10:55:48;101514.69;;;17.24;74.84
68230;BME280;55048;52.220;5.160;2023-08-07T10:58:23;101598.53;;;17.89;75.98
68230;BME280;55048;52.220;5.160;2023-08-07T11:03:36;101589.41;;;18.10;75.24
68230;BME280;55048;52.220;5.160;2023-08-07T11:06:01;101560.56;;;17.80;76.17
68230;BME280;55048;52.220;5.160;2023-08-07T11:08:27;101559.53;;;17.91;76.17
68230;BME280;55048;52.220;5.160;2023-08-07T11:10:53;101553.59;;;17.99;75.98
68230;BME280;55048;52.220;5.160;2023-08-07T11:13:20;101580.25;;;18.52;74.98
68230;BME280;55048;52.220;5.160;2023-08-07T11:15:46;101576.44;;;18.73;74.29
68230;BME280;55048;52.220;5.160;2023-08-07T11:18:12;101547.94;;;18.52;74.36
68230;BME280;55048;52.220;5.160;2023-08-07T11:20:37;101591.81;;;18.78;73.28
68230;BME280;55048;52.220;5.160;2023-08-07T11:23:04;101603.66;;;18.77;73.47
68230;BME280;55048;52.220;5.160;2023-08-07T11:25:30;101576.16;;;18.85;73.43
68230;BME280;55048;52.220;5.160;2023-08-07T11:27:56;101577.75;;;18.96;72.36
68230;BME280;55048;52.220;5.160;2023-08-07T11:30:21;101550.56;;;18.82;71.06
68230;BME280;55048;52.220;5.160;2023-08-07T11:32:47;101589.84;;;19.04;70.07
68230;BME280;55048;52.220;5.160;2023-08-07T11:35:12;101598.97;;;19.23;67.71
68230;BME280;55048;52.220;5.160;2023-08-07T11:37:45;101569.56;;;19.22;67.03
68230;BME280;55048;52.220;5.160;2023-08-07T11:40:11;101538.03;;;19.22;64.53
68230;BME280;55048;52.220;5.160;2023-08-07T11:42:37;101516.00;;;19.54;62.96
68230;BME280;55048;52.220;5.160;2023-08-07T11:45:03;101552.28;;;19.28;59.66
68230;BME280;55048;52.220;5.160;2023-08-07T11:47:28;101543.47;;;19.61;60.41
68230;BME280;55048;52.220;5.160;2023-08-07T11:49:54;101556.19;;;19.95;59.48
68230;BME280;55048;52.220;5.160;2023-08-07T11:52:20;101602.50;;;20.47;59.73
68230;BME280;55048;52.220;5.160;2023-08-07T11:54:48;101639.31;;;20.43;56.78
68230;BME280;55048;52.220;5.160;2023-08-07T11:57:16;101522.16;;;19.99;55.76
68230;BME280;55048;52.220;5.160;2023-08-07T11:59:41;101581.09;;;20.55;56.69
68230;BME280;55048;52.220;5.160;2023-08-07T12:02:10;101603.25;;;20.57;53.26
68230;BME280;55048;52.220;5.160;2023-08-07T12:04:39;101536.56;;;20.19;53.99
68230;BME280;55048;52.220;5.160;2023-08-07T12:07:05;101558.13;;;20.58;55.07
68230;BME280;55048;52.220;5.160;2023-08-07T12:09:30;101554.44;;;20.49;52.32
68230;BME280;55048;52.220;5.160;2023-08-07T12:11:59;101588.44;;;21.03;53.53
68230;BME280;55048;52.220;5.160;2023-08-07T12:14:29;101529.94;;;20.64;55.02
68230;BME280;55048;52.220;5.160;2023-08-07T12:16:55;101520.56;;;20.27;54.43
68230;BME280;55048;52.220;5.160;2023-08-07T12:19:20;101562.25;;;20.16;53.80
68230;BME280;55048;52.220;5.160;2023-08-07T12:21:46;101598.16;;;20.51;53.42
68230;BME280;55048;52.220;5.160;2023-08-07T12:24:12;101511.25;;;20.09;52.77
68230;BME280;55048;52.220;5.160;2023-08-07T12:26:38;101598.16;;;20.51;51.96
68230;BME280;55048;52.220;5.160;2023-08-07T12:29:03;101608.88;;;20.27;51.55
68230;BME280;55048;52.220;5.160;2023-08-07T12:31:29;101589.34;;;20.40;52.13
68230;BME280;55048;52.220;5.160;2023-08-07T12:33:54;101562.88;;;20.37;52.38
68230;BME280;55048;52.220;5.160;2023-08-07T12:36:20;101515.88;;;19.75;52.43
68230;BME280;55048;52.220;5.160;2023-08-07T12:38:45;101599.06;;;20.07;52.34
68230;BME280;55048;52.220;5.160;2023-08-07T12:41:11;101608.50;;;20.44;53.83
68230;BME280;55048;52.220;5.160;2023-08-07T12:43:37;101589.00;;;20.47;52.92
68230;BME280;55048;52.220;5.160;2023-08-07T12:46:02;101498.53;;;20.15;52.08
68230;BME280;55048;52.220;5.160;2023-08-07T12:48:27;101616.03;;;20.52;51.41
68230;BME280;55048;52.220;5.160;2023-08-07T12:50:53;101565.75;;;20.17;52.76
68230;BME280;55048;52.220;5.160;2023-08-07T12:53:19;101593.69;;;20.36;54.37
68230;BME280;55048;52.220;5.160;2023-08-07T12:55:44;101549.91;;;19.71;54.98